createdAt,value
2022-10-22T00:00:54.140Z,100054.16
2022-10-22T00:03:20.446Z,100055.94
2022-10-22T00:05:47.726Z,100050.97
2022-10-22T00:08:14.151Z,100049.66
2022-10-22T00:10:41.279Z,100050.28
2022-10-22T00:13:07.759Z,100050.53
2022-10-22T00:15:34.160Z,100056.59
2022-10-22T00:18:00.475Z,100064.28
2022-10-22T00:20:26.849Z,100065.56
2022-10-22T00:22:53.153Z,100072.63
2022-10-22T00:25:19.605Z,100065.75
2022-10-22T00:27:45.955Z,100078.53
2022-10-22T00:30:12.459Z,100066.22
2022-10-22T00:32:39.442Z,100065.25
2022-10-22T00:35:07.398Z,100072.75
2022-10-22T00:37:33.835Z,100074.69
2022-10-22T00:40:00.178Z,100083.94
2022-10-22T00:42:28.029Z,100088.91
2022-10-22T00:45:09.574Z,100093.66
2022-10-22T00:47:59.346Z,100093.97
2022-10-22T00:50:43.543Z,100099.28
2022-10-22T00:53:16.040Z,100102.16
2022-10-22T00:55:45.116Z,100096.44
2022-10-22T00:58:13.106Z,100092.47
2022-10-22T01:00:39.961Z,100098.88
2022-10-22T01:03:06.766Z,100098.06
2022-10-22T01:05:42.404Z,100098.22
2022-10-22T01:08:17.071Z,100102.09
2022-10-22T01:11:02.247Z,100097.00
2022-10-22T01:13:41.871Z,100086.25
2022-10-22T01:16:24.463Z,100093.78
2022-10-22T01:19:25.880Z,100083.69
2022-10-22T01:22:08.311Z,100090.25
2022-10-22T01:24:47.389Z,100087.50
2022-10-22T01:27:28.914Z,100083.50
2022-10-22T01:30:02.995Z,100085.44
2022-10-22T01:32:33.061Z,100082.22
2022-10-22T01:35:07.175Z,100086.47
2022-10-22T01:37:38.681Z,100090.50
2022-10-22T01:40:07.382Z,100087.94
2022-10-22T01:42:33.733Z,100086.84
2022-10-22T01:45:00.121Z,100092.47
2022-10-22T01:47:48.498Z,100091.97
2022-10-22T01:50:23.565Z,100089.25
2022-10-22T01:53:11.162Z,100092.94
2022-10-22T01:55:52.823Z,100083.69
2022-10-22T01:58:37.880Z,100083.81
2022-10-22T02:01:16.082Z,100076.78
2022-10-22T02:03:50.296Z,100079.78
2022-10-22T02:06:20.519Z,100075.16
2022-10-22T02:08:49.278Z,100086.66
2022-10-22T02:11:15.843Z,100087.03
2022-10-22T02:13:48.270Z,100078.84
2022-10-22T02:16:31.964Z,100082.22
2022-10-22T02:19:02.612Z,100074.22
2022-10-22T02:21:29.630Z,100067.66
2022-10-22T02:23:56.329Z,100068.75
2022-10-22T02:26:31.986Z,100055.28
2022-10-22T02:29:14.015Z,100061.16
2022-10-22T02:31:43.189Z,100043.72
2022-10-22T02:34:15.733Z,100053.59
2022-10-22T02:36:46.771Z,100058.41
2022-10-22T02:39:19.011Z,100056.81
2022-10-22T02:41:45.359Z,100061.91
2022-10-22T02:44:11.926Z,100062.25
2022-10-22T02:46:40.278Z,100055.56
2022-10-22T02:49:06.581Z,100054.97
2022-10-22T02:51:32.956Z,100066.47
2022-10-22T02:53:59.274Z,100051.09
2022-10-22T02:56:25.665Z,100068.81
2022-10-22T02:58:51.978Z,100063.66
2022-10-22T03:01:18.326Z,100058.19
2022-10-22T03:03:44.672Z,100070.47
2022-10-22T03:06:11.100Z,100074.25
2022-10-22T03:08:37.444Z,100071.16
2022-10-22T03:11:03.942Z,100082.13
2022-10-22T03:13:30.275Z,100077.81
2022-10-22T03:15:56.623Z,100080.81
2022-10-22T03:18:22.967Z,100085.78
2022-10-22T03:20:49.403Z,100088.63
2022-10-22T03:23:19.557Z,100079.78
2022-10-22T03:25:48.148Z,100090.03
2022-10-22T03:28:17.231Z,100101.72
2022-10-22T03:30:43.546Z,100096.50
2022-10-22T03:33:09.881Z,100095.50
2022-10-22T03:35:42.491Z,100097.53
2022-10-22T03:38:08.879Z,100096.53
2022-10-22T03:40:35.263Z,100105.81
2022-10-22T03:43:01.682Z,100119.06
2022-10-22T03:45:28.082Z,100114.84
2022-10-22T03:47:54.586Z,100109.00
2022-10-22T03:50:20.911Z,100108.81
2022-10-22T03:52:47.267Z,100111.34
2022-10-22T03:55:13.617Z,100118.69
2022-10-22T03:57:40.269Z,100122.31
2022-10-22T04:00:07.476Z,100116.25
2022-10-22T04:02:33.807Z,100110.84
2022-10-22T04:05:00.210Z,100121.59
2022-10-22T04:07:26.696Z,100123.78
2022-10-22T04:09:53.080Z,100111.59
2022-10-22T04:12:19.452Z,100120.38
2022-10-22T04:14:45.768Z,100124.91
2022-10-22T04:17:12.092Z,100132.34
2022-10-22T04:19:38.466Z,100136.38
2022-10-22T04:22:04.806Z,100137.97
2022-10-22T04:24:32.068Z,100133.66
2022-10-22T04:26:58.630Z,100137.38
2022-10-22T04:29:25.448Z,100136.16
2022-10-22T04:31:51.985Z,100131.50
2022-10-22T04:34:18.367Z,100138.06
2022-10-22T04:36:44.727Z,100135.16
2022-10-22T04:39:11.046Z,100129.72
2022-10-22T04:41:39.198Z,100125.09
2022-10-22T04:44:06.315Z,100126.00
2022-10-22T04:46:34.840Z,100134.97
2022-10-22T04:49:01.777Z,100128.53
2022-10-22T04:51:28.123Z,100128.34
2022-10-22T04:53:54.729Z,100126.75
2022-10-22T04:56:27.075Z,100125.00
2022-10-22T04:59:02.038Z,100131.94
2022-10-22T05:01:32.072Z,100130.53
2022-10-22T05:04:00.265Z,100132.25
2022-10-22T05:06:28.646Z,100127.00
2022-10-22T05:09:01.063Z,100136.06
2022-10-22T05:11:33.486Z,100135.69
2022-10-22T05:14:01.267Z,100138.59
2022-10-22T05:16:29.492Z,100139.28
2022-10-22T05:18:57.446Z,100136.38
2022-10-22T05:21:23.801Z,100129.50
2022-10-22T05:23:50.774Z,100130.41
2022-10-22T05:26:21.615Z,100128.31
2022-10-22T05:28:49.471Z,100125.06
2022-10-22T05:31:17.249Z,100135.31
2022-10-22T05:33:43.944Z,100149.34
2022-10-22T05:36:16.561Z,100144.34
2022-10-22T05:38:42.891Z,100145.75
2022-10-22T05:41:12.172Z,100147.78
2022-10-22T05:43:38.536Z,100150.31
2022-10-22T05:46:21.246Z,100148.63
2022-10-22T05:48:50.315Z,100155.94
2022-10-22T05:51:16.903Z,100161.59
2022-10-22T05:53:43.985Z,100171.34
2022-10-22T05:56:15.707Z,100163.91
2022-10-22T05:58:43.225Z,100167.94
2022-10-22T06:01:18.121Z,100170.72
2022-10-22T06:03:44.889Z,100175.78
2022-10-22T06:06:20.120Z,100179.47
2022-10-22T06:08:48.862Z,100174.75
2022-10-22T06:11:16.468Z,100197.69
2022-10-22T06:13:42.760Z,100190.63
2022-10-22T06:16:09.054Z,100195.06
2022-10-22T06:18:35.389Z,100211.03
2022-10-22T06:21:12.846Z,100207.16
2022-10-22T06:23:39.965Z,100216.38
2022-10-22T06:26:07.507Z,100203.91
2022-10-22T06:28:34.118Z,100207.34
2022-10-22T06:31:01.399Z,100218.81
2022-10-22T06:33:29.561Z,100217.59
2022-10-22T06:35:55.860Z,100220.41
2022-10-22T06:38:22.165Z,100221.44
2022-10-22T06:40:48.481Z,100226.25
2022-10-22T06:43:14.879Z,100232.47
2022-10-22T06:45:41.319Z,100237.31
2022-10-22T06:48:07.691Z,100238.38
2022-10-22T06:50:34.887Z,100241.31
2022-10-22T06:53:01.327Z,100253.78
2022-10-22T06:55:27.770Z,100257.47
2022-10-22T06:57:55.532Z,100252.97
2022-10-22T07:00:21.987Z,100258.41
2022-10-22T07:02:54.323Z,100260.56
2022-10-22T07:05:21.661Z,100258.03
2022-10-22T07:07:48.059Z,100263.84
2022-10-22T07:10:14.526Z,100262.50
2022-10-22T07:12:40.950Z,100262.91
2022-10-22T07:15:07.873Z,100271.78
2022-10-22T07:17:34.241Z,100262.91
2022-10-22T07:20:01.852Z,100263.69
2022-10-22T07:22:28.178Z,100261.84
2022-10-22T07:24:54.480Z,100262.41
2022-10-22T07:27:20.808Z,100274.41
2022-10-22T07:29:47.255Z,100281.22
2022-10-22T07:32:13.891Z,100275.47
2022-10-22T07:34:43.068Z,100286.25
2022-10-22T07:37:10.233Z,100278.97
2022-10-22T07:39:36.609Z,100292.31
2022-10-22T07:42:02.986Z,100291.25
2022-10-22T07:44:29.285Z,100283.59
2022-10-22T07:46:55.608Z,100294.41
2022-10-22T07:49:21.956Z,100286.09
2022-10-22T07:51:48.259Z,100289.41
2022-10-22T07:54:14.579Z,100293.28
2022-10-22T07:56:40.866Z,100295.72
2022-10-22T07:59:07.173Z,100290.63
2022-10-22T08:01:33.549Z,100287.47
2022-10-22T08:03:59.902Z,100293.41
2022-10-22T08:06:26.230Z,100284.13
2022-10-22T08:08:52.579Z,100285.88
2022-10-22T08:11:18.957Z,100293.09
2022-10-22T08:13:45.924Z,100291.81
2022-10-22T08:16:12.615Z,100299.97
2022-10-22T08:18:38.955Z,100297.75
2022-10-22T08:21:05.446Z,100302.84
2022-10-22T08:23:31.875Z,100297.69
2022-10-22T08:25:58.183Z,100301.19
2022-10-22T08:28:24.991Z,100307.91
2022-10-22T08:30:51.526Z,100307.06
2022-10-22T08:33:17.892Z,100311.97
2022-10-22T08:35:48.622Z,100306.59
2022-10-22T08:38:15.067Z,100313.94
2022-10-22T08:40:42.588Z,100308.84
2022-10-22T08:44:06.557Z,100311.00
2022-10-22T08:47:03.680Z,100311.28
2022-10-22T08:49:37.156Z,100317.91
2022-10-22T08:52:16.521Z,100318.91
2022-10-22T08:54:56.632Z,100319.63
2022-10-22T08:58:20.605Z,100327.97
2022-10-22T09:00:52.270Z,100325.25
2022-10-22T09:03:18.529Z,100327.66
2022-10-22T09:06:32.529Z,100328.56
2022-10-22T09:09:01.179Z,100334.31
2022-10-22T09:11:31.907Z,100329.66
2022-10-22T09:13:59.730Z,100323.13
2022-10-22T09:16:53.777Z,100330.00
2022-10-22T09:19:39.940Z,100334.00
2022-10-22T09:22:17.747Z,100324.03
2022-10-22T09:24:52.435Z,100329.09
2022-10-22T09:27:27.867Z,100329.78
2022-10-22T09:29:54.218Z,100326.13
2022-10-22T09:32:20.586Z,100321.53
2022-10-22T09:34:49.016Z,100324.28
2022-10-22T09:37:24.701Z,100341.41
2022-10-22T09:39:52.305Z,100328.56
2022-10-22T09:42:20.541Z,100341.16
2022-10-22T09:44:53.858Z,100334.75
2022-10-22T09:47:42.964Z,100350.09
2022-10-22T09:50:21.209Z,100347.34
2022-10-22T09:53:20.299Z,100344.72
2022-10-22T09:55:53.827Z,100361.53
2022-10-22T09:58:20.630Z,100358.78
2022-10-22T10:00:52.219Z,100364.06
2022-10-22T10:03:21.709Z,100355.75
2022-10-22T10:05:54.090Z,100357.53
2022-10-22T10:08:20.799Z,100355.03
2022-10-22T10:10:52.173Z,100361.91
2022-10-22T10:13:57.067Z,100358.91
2022-10-22T10:17:04.821Z,100365.34
2022-10-22T10:19:33.908Z,100363.28
2022-10-22T10:22:21.718Z,100369.88
2022-10-22T10:24:55.917Z,100368.97
2022-10-22T10:27:28.995Z,100368.28
2022-10-22T10:30:17.105Z,100374.03
2022-10-22T10:33:12.330Z,100380.88
2022-10-22T10:36:09.716Z,100382.38
2022-10-22T10:38:44.812Z,100383.22
2022-10-22T10:41:16.298Z,100380.03
2022-10-22T10:44:11.957Z,100371.72
2022-10-22T10:46:53.364Z,100388.06
2022-10-22T10:49:24.344Z,100384.78
2022-10-22T10:52:01.461Z,100383.28
2022-10-22T10:54:49.257Z,100368.66
2022-10-22T10:57:46.634Z,100371.38
2022-10-22T11:00:18.791Z,100384.19
2022-10-22T11:03:03.229Z,100387.19
2022-10-22T11:05:43.722Z,100374.50
2022-10-22T11:08:24.671Z,100379.88
2022-10-22T11:11:05.266Z,100384.16
2022-10-22T11:13:36.741Z,100386.66
2022-10-22T11:16:20.022Z,100382.38
2022-10-22T11:18:55.256Z,100382.56
2022-10-22T11:21:27.004Z,100391.16
2022-10-22T11:24:20.530Z,100391.69
2022-10-22T11:27:10.160Z,100393.47
2022-10-22T11:29:52.147Z,100388.13
2022-10-22T11:32:20.849Z,100395.84
2022-10-22T11:34:53.442Z,100399.56
2022-10-22T11:37:20.899Z,100392.06
2022-10-22T11:40:03.040Z,100395.84
2022-10-22T11:42:37.137Z,100399.97
2022-10-22T11:45:15.409Z,100396.66
2022-10-22T11:47:58.296Z,100397.16
2022-10-22T11:50:46.300Z,100410.75
2022-10-22T11:53:12.666Z,100409.06
2022-10-22T11:55:44.997Z,100409.50
2022-10-22T11:58:28.088Z,100408.09
2022-10-22T12:00:56.547Z,100407.63
2022-10-22T12:03:31.914Z,100407.53
2022-10-22T12:06:07.431Z,100397.88
2022-10-22T12:08:34.487Z,100406.97
2022-10-22T12:11:21.172Z,100404.69
2022-10-22T12:14:03.703Z,100406.78
2022-10-22T12:16:55.149Z,100395.91
2022-10-22T12:19:22.268Z,100406.34
2022-10-22T12:22:08.427Z,100410.59
2022-10-22T12:24:37.704Z,100406.59
2022-10-22T12:27:04.457Z,100403.63
2022-10-22T12:29:32.547Z,100407.56
2022-10-22T12:32:04.010Z,100410.75
2022-10-22T12:34:30.395Z,100405.84
2022-10-22T12:36:56.698Z,100414.56
2022-10-22T12:39:26.807Z,100408.97
2022-10-22T12:41:54.325Z,100412.53
2022-10-22T12:44:20.765Z,100413.13
2022-10-22T12:46:51.747Z,100420.88
2022-10-22T12:49:23.542Z,100427.31
2022-10-22T12:51:49.937Z,100423.75
2022-10-22T12:54:30.930Z,100423.06
2022-10-22T12:56:57.968Z,100414.50
2022-10-22T12:59:27.726Z,100414.84
2022-10-22T13:01:54.848Z,100419.16
2022-10-22T13:04:26.945Z,100420.06
2022-10-22T13:07:06.588Z,100418.63
2022-10-22T13:09:39.717Z,100413.25
2022-10-22T13:12:07.852Z,100414.78
2022-10-22T13:14:36.132Z,100409.75
2022-10-22T13:17:28.648Z,100418.00
2022-10-22T13:19:54.907Z,100413.50
2022-10-22T13:22:26.452Z,100422.94
2022-10-22T13:24:53.389Z,100417.44
2022-10-22T13:27:20.227Z,100430.06
2022-10-22T13:29:46.663Z,100416.88
2022-10-22T13:32:29.497Z,100426.44
2022-10-22T13:34:57.876Z,100423.72
2022-10-22T13:37:24.746Z,100421.00
2022-10-22T13:39:51.050Z,100420.09
2022-10-22T13:42:17.374Z,100426.25
2022-10-22T13:44:43.704Z,100432.25
2022-10-22T13:47:29.505Z,100422.94
2022-10-22T13:49:59.951Z,100423.19
2022-10-22T13:52:39.944Z,100430.47
2022-10-22T13:55:26.684Z,100432.88
2022-10-22T13:58:14.949Z,100431.81
2022-10-22T14:00:44.172Z,100433.25
2022-10-22T14:03:13.550Z,100440.53
2022-10-22T14:05:39.940Z,100452.06
2022-10-22T14:08:12.479Z,100449.59
2022-10-22T14:10:38.802Z,100446.47
2022-10-22T14:13:10.923Z,100455.66
2022-10-22T14:15:37.928Z,100454.63
2022-10-22T14:18:06.125Z,100465.19
2022-10-22T14:20:36.084Z,100472.13
2022-10-22T14:23:28.540Z,100473.94
2022-10-22T14:25:55.603Z,100476.34
2022-10-22T14:28:21.957Z,100477.97
2022-10-22T14:30:48.468Z,100476.69
2022-10-22T14:33:19.060Z,100473.75
2022-10-22T14:35:45.756Z,100474.81
2022-10-22T14:38:12.079Z,100472.16
2022-10-22T14:40:39.902Z,100474.88
2022-10-22T14:43:06.243Z,100471.84
2022-10-22T14:45:32.593Z,100476.50
2022-10-22T14:47:58.922Z,100479.81
2022-10-22T14:50:25.315Z,100484.78
2022-10-22T14:52:51.929Z,100482.25
2022-10-22T14:55:19.461Z,100483.13
2022-10-22T14:57:46.358Z,100483.56
2022-10-22T15:00:16.204Z,100481.44
2022-10-22T15:02:43.275Z,100493.88
2022-10-22T15:05:10.038Z,100485.56
2022-10-22T15:07:36.611Z,100493.03
2022-10-22T15:10:04.982Z,100494.34
2022-10-22T15:12:31.358Z,100496.94
2022-10-22T15:14:57.676Z,100500.53
2022-10-22T15:17:24.110Z,100505.06
2022-10-22T15:19:50.684Z,100505.06
2022-10-22T15:22:16.987Z,100501.97
2022-10-22T15:24:43.335Z,100500.28
2022-10-22T15:27:09.777Z,100503.31
2022-10-22T15:29:36.198Z,100505.09
2022-10-22T15:32:02.575Z,100506.09
2022-10-22T15:34:39.312Z,100511.59
2022-10-22T15:37:08.925Z,100504.69
2022-10-22T15:39:35.810Z,100516.13
2022-10-22T15:42:02.199Z,100512.72
2022-10-22T15:44:30.789Z,100518.03
2022-10-22T15:46:57.761Z,100520.78
2022-10-22T15:49:25.698Z,100514.81
2022-10-22T15:51:52.469Z,100522.38
2022-10-22T15:54:24.674Z,100522.19
2022-10-22T15:56:51.596Z,100519.47
2022-10-22T15:59:18.322Z,100520.22
2022-10-22T16:01:45.231Z,100515.84
2022-10-22T16:04:11.591Z,100519.34
2022-10-22T16:06:41.326Z,100520.44
2022-10-22T16:09:13.061Z,100520.13
2022-10-22T16:11:39.848Z,100522.19
2022-10-22T16:14:06.667Z,100524.56
2022-10-22T16:16:36.003Z,100523.47
2022-10-22T16:19:02.591Z,100524.38
2022-10-22T16:21:28.954Z,100532.69
2022-10-22T16:23:55.270Z,100526.41
2022-10-22T16:26:21.585Z,100529.81
2022-10-22T16:28:48.468Z,100518.88
2022-10-22T16:31:17.680Z,100528.53
2022-10-22T16:33:47.777Z,100533.22
2022-10-22T16:36:18.945Z,100536.91
2022-10-22T16:38:46.616Z,100532.25
2022-10-22T16:41:18.729Z,100539.34
2022-10-22T16:43:47.147Z,100537.38
2022-10-22T16:46:14.690Z,100541.41
2022-10-22T16:48:45.716Z,100546.38
2022-10-22T16:51:14.019Z,100555.69
2022-10-22T16:53:40.313Z,100552.41
2022-10-22T16:56:14.332Z,100551.25
2022-10-22T16:58:46.416Z,100557.97
2022-10-22T17:01:15.927Z,100560.06
2022-10-22T17:03:44.587Z,100560.19
2022-10-22T17:06:11.033Z,100564.19
2022-10-22T17:08:38.727Z,100564.81
2022-10-22T17:11:09.779Z,100572.81
2022-10-22T17:13:36.443Z,100569.59
2022-10-22T17:16:04.888Z,100573.28
2022-10-22T17:18:31.958Z,100581.94
2022-10-22T17:20:58.358Z,100579.38
2022-10-22T17:23:27.782Z,100584.16
2022-10-22T17:25:59.300Z,100579.09
2022-10-22T17:28:26.905Z,100584.53
2022-10-22T17:31:08.007Z,100575.50
2022-10-22T17:33:36.561Z,100582.28
2022-10-22T17:36:06.974Z,100585.81
2022-10-22T17:38:33.319Z,100591.41
2022-10-22T17:41:04.039Z,100588.00
2022-10-22T17:43:33.306Z,100583.47
2022-10-22T17:46:11.191Z,100587.56
2022-10-22T17:48:37.617Z,100591.03
2022-10-22T17:51:08.524Z,100601.84
2022-10-22T17:53:35.489Z,100598.59
2022-10-22T17:56:03.867Z,100597.47
2022-10-22T17:58:30.455Z,100598.00
2022-10-22T18:00:58.031Z,100604.75
2022-10-22T18:03:24.647Z,100606.28
2022-10-22T18:05:50.943Z,100610.53
2022-10-22T18:08:17.266Z,100610.06
2022-10-22T18:10:43.565Z,100611.16
2022-10-22T18:13:09.895Z,100616.72
2022-10-22T18:15:36.295Z,100629.50
2022-10-22T18:18:04.106Z,100622.28
2022-10-22T18:20:30.981Z,100626.69
2022-10-22T18:22:57.292Z,100622.00
2022-10-22T18:25:23.650Z,100619.97
2022-10-22T18:27:50.023Z,100629.19
2022-10-22T18:30:16.429Z,100622.72
2022-10-22T18:32:42.726Z,100620.81
2022-10-22T18:35:09.191Z,100627.81
2022-10-22T18:37:35.498Z,100630.78
2022-10-22T18:40:03.076Z,100631.16
2022-10-22T18:42:32.752Z,100630.72
2022-10-22T18:45:00.863Z,100633.88
2022-10-22T18:47:27.168Z,100643.16
2022-10-22T18:49:53.496Z,100641.84
2022-10-22T18:52:19.805Z,100642.41
2022-10-22T18:54:46.165Z,100639.28
2022-10-22T18:57:12.554Z,100637.34
2022-10-22T18:59:38.864Z,100637.97
2022-10-22T19:02:05.313Z,100640.28
2022-10-22T19:04:31.760Z,100642.97
2022-10-22T19:06:58.442Z,100639.66
2022-10-22T19:09:25.883Z,100643.97
2022-10-22T19:11:52.263Z,100639.41
2022-10-22T19:14:18.598Z,100638.28
2022-10-22T19:16:45.220Z,100631.25
2022-10-22T19:19:16.623Z,100628.22
2022-10-22T19:21:42.967Z,100626.97
2022-10-22T19:24:10.915Z,100630.47
2022-10-22T19:26:37.450Z,100633.16
2022-10-22T19:29:04.280Z,100636.09
2022-10-22T19:31:31.417Z,100639.53
2022-10-22T19:33:59.932Z,100646.75
2022-10-22T19:36:27.365Z,100645.84
2022-10-22T19:38:54.119Z,100655.56
2022-10-22T19:41:22.559Z,100657.31
2022-10-22T19:43:51.594Z,100661.22
2022-10-22T19:46:19.366Z,100661.44
2022-10-22T19:51:20.105Z,100655.34
2022-10-22T19:53:46.797Z,100657.69
2022-10-22T19:56:17.059Z,100654.78
2022-10-22T19:58:43.929Z,100643.13
2022-10-22T20:01:12.119Z,100643.75
2022-10-22T20:03:41.673Z,100644.91
2022-10-22T20:06:10.419Z,100648.06
2022-10-22T20:08:37.770Z,100646.25
2022-10-22T20:11:06.410Z,100647.63
2022-10-22T20:13:33.647Z,100645.09
2022-10-22T20:15:59.970Z,100648.81
2022-10-22T20:18:26.656Z,100649.81
2022-10-22T20:20:53.065Z,100657.00
2022-10-22T20:23:19.484Z,100658.75
2022-10-22T20:25:47.136Z,100659.44
2022-10-22T20:28:14.430Z,100656.13
2022-10-22T20:30:42.494Z,100652.03
2022-10-22T20:33:08.960Z,100647.41
2022-10-22T20:35:36.693Z,100659.44
2022-10-22T20:38:04.665Z,100659.59
2022-10-22T20:40:31.937Z,100664.09
2022-10-22T20:43:01.806Z,100654.00
2022-10-22T20:45:28.749Z,100655.63
2022-10-22T20:48:02.629Z,100663.03
2022-10-22T20:50:30.369Z,100657.34
2022-10-22T20:52:56.761Z,100650.63
2022-10-22T20:55:23.143Z,100653.56
2022-10-22T20:57:49.634Z,100660.91
2022-10-22T21:00:16.376Z,100666.81
2022-10-22T21:02:42.722Z,100664.69
2022-10-22T21:05:09.231Z,100665.78
2022-10-22T21:07:35.531Z,100659.31
2022-10-22T21:10:01.955Z,100658.22
2022-10-22T21:12:28.262Z,100656.59
2022-10-22T21:14:54.566Z,100662.66
2022-10-22T21:17:20.875Z,100661.38
2022-10-22T21:19:47.165Z,100657.34
2022-10-22T21:22:13.490Z,100655.22
2022-10-22T21:24:39.805Z,100663.94
2022-10-22T21:27:06.118Z,100653.09
2022-10-22T21:29:32.496Z,100652.84
2022-10-22T21:31:58.836Z,100649.34
2022-10-22T21:34:25.475Z,100645.69
2022-10-22T21:36:51.811Z,100652.09
2022-10-22T21:39:18.122Z,100657.00
2022-10-22T21:41:44.466Z,100657.81
2022-10-22T21:44:10.950Z,100665.09
2022-10-22T21:46:37.292Z,100659.66
2022-10-22T21:49:04.216Z,100674.34
2022-10-22T21:51:32.971Z,100662.66
2022-10-22T21:53:59.548Z,100658.63
2022-10-22T21:56:28.754Z,100671.63
2022-10-22T21:58:55.851Z,100666.81
2022-10-22T22:01:22.567Z,100660.88
2022-10-22T22:03:49.816Z,100665.13
2022-10-22T22:06:21.188Z,100663.00
2022-10-22T22:08:48.717Z,100664.69
2022-10-22T22:11:20.959Z,100667.41
2022-10-22T22:13:47.689Z,100665.25
2022-10-22T22:16:17.872Z,100669.59
2022-10-22T22:18:44.232Z,100664.72
2022-10-22T22:21:17.873Z,100678.81
2022-10-22T22:23:46.552Z,100672.13
2022-10-22T22:26:14.366Z,100672.38
2022-10-22T22:28:40.702Z,100668.28
2022-10-22T22:31:15.279Z,100674.56
2022-10-22T22:33:41.938Z,100666.91
2022-10-22T22:36:08.527Z,100664.50
2022-10-22T22:38:34.913Z,100662.88
2022-10-22T22:41:02.077Z,100663.06
2022-10-22T22:43:28.459Z,100655.66
2022-10-22T22:46:06.139Z,100658.06
2022-10-22T22:48:33.513Z,100662.31
2022-10-22T22:51:02.375Z,100663.06
2022-10-22T22:53:29.078Z,100661.69
2022-10-22T22:56:15.770Z,100653.88
2022-10-22T22:58:42.824Z,100654.84
2022-10-22T23:01:22.592Z,100654.69
2022-10-22T23:03:54.919Z,100651.00
2022-10-22T23:06:21.585Z,100652.97
2022-10-22T23:08:49.865Z,100661.97
2022-10-22T23:11:16.567Z,100660.69
2022-10-22T23:13:43.377Z,100663.44
2022-10-22T23:16:17.756Z,100665.88
2022-10-22T23:18:45.688Z,100656.81
2022-10-22T23:21:27.572Z,100647.31
2022-10-22T23:23:56.977Z,100643.44
2022-10-22T23:26:35.442Z,100640.66
2022-10-22T23:29:17.587Z,100635.25
2022-10-22T23:31:44.619Z,100641.69
2022-10-22T23:34:14.368Z,100635.78
2022-10-22T23:36:40.775Z,100635.09
2022-10-22T23:39:10.055Z,100642.63
2022-10-22T23:41:37.325Z,100638.28
2022-10-22T23:44:04.864Z,100637.50
2022-10-22T23:46:31.190Z,100641.28
2022-10-22T23:48:57.514Z,100644.84
2022-10-22T23:51:23.884Z,100638.88
2022-10-22T23:53:56.328Z,100634.56
2022-10-22T23:56:22.707Z,100642.13
2022-10-22T23:58:51.182Z,100630.59
